Flight Track Log - Related Links

Times and Time Zones

All times are in EDT time to prevent confusion due to time zone crossing. See the N46PA flight status page for this flight to view local times or setup timezone preferences in your user account.

Time Position Orientation Groundspeed Altitude Reporting Facility
EDT Latitude Longitude Course Direction KTS MPH feet Rate Location/Type
Sun 06:01:46 PM 47.1661 -120.3286 286° West 123 142 8,400  Level Seattle Center
Sun 06:02:47 PM 47.1353 -120.3583 213° Southwest 132 152 8,700 492 Climbing Seattle Center
Sun 06:03:48 PM 47.1061 -120.3811 208° Southwest 121 139 9,400 347 Climbing Seattle Center
Sun 06:04:48 PM 47.0789 -120.4108 217° Southwest 125 144 9,400 99 Level Seattle Center
Sun 06:05:49 PM 47.0453 -120.4408 211° Southwest 141 162 9,600 295 Climbing Seattle Center
Sun 06:06:50 PM 47.0253 -120.4722 227° Southwest 115 132 10,000 197 Climbing Seattle Center
Sun 06:07:00 PM 47.1090 -120.8447 286° West  Level FlightAware Approximate
Sun 06:07:51 PM 47.0394 -120.5308 290° West 141 162 10,000  Level Seattle Center
Sun 06:08:52 PM 47.0522 -120.5867 289° West 144 166 10,000  Level Seattle Center
Sun 06:09:52 PM 47.0633 -120.6389 287° West 133 153 10,000  Level Seattle Center
Sun 06:10:53 PM 47.0753 -120.6906 289° West 136 157 10,000  Level Seattle Center
Sun 06:11:54 PM 47.0897 -120.7514 289° West 132 152 10,000  Level Seattle Center
Sun 06:12:55 PM 47.1000 -120.7983 288° West 123 142 10,000 49 Level Seattle Center
Sun 06:13:56 PM 47.1117 -120.8483 289° West 123 142 10,100 50 Climbing Seattle Center
Sun 06:14:56 PM 47.1214 -120.8919 288° West 116 133 10,100  Level Seattle Center
Sun 06:15:57 PM 47.1339 -120.9389 291° West 124 143 10,100  Level Seattle Center
Sun 06:16:58 PM 47.1439 -120.9831 288° West 128 147 10,100  Level Seattle Center
Sun 06:17:59 PM 47.1550 -121.0344 288° West 134 154 10,100  Level Seattle Center
Sun 06:19:00 PM 47.1642 -121.0903 284° West 139 160 10,100 -49 Level Seattle Center
Sun 06:20:01 PM 47.1789 -121.1439 292° West 143 165 10,000 -49 Descending Seattle Center
Sun 06:21:02 PM 47.1925 -121.2083 287° West 141 162 10,000  Level Seattle Center
Sun 06:22:03 PM 47.2033 -121.2597 287° West 134 154 10,000  Level Seattle Center
Sun 06:23:03 PM 47.2158 -121.3125 289° West 128 147 10,000  Level Seattle Center
Sun 06:23:56 PM 47.2258 -121.3558 289° West 130 150 10,000  Level Seattle Center
Sun 06:25:05 PM 47.2394 -121.4142 289° West 133 153 10,000 -94 Level Seattle Center
Sun 06:26:03 PM 47.2514 -121.4694 288° West 141 162 9,800 -303 Descending Seattle Center
Sun 06:27:04 PM 47.2644 -121.5275 288° West 154 177 9,400 -517 Descending Seattle Center
Sun 06:27:59 PM 47.2739 -121.5811 285° West 148 170 8,800 -545 Descending Seattle Center
Sun 06:28:54 PM 47.2858 -121.6267 291° West 146 168 8,400 -514 Descending Seattle Center
Sun 06:29:09 PM 47.2897 -121.6458 287° West 145 167 8,200 -627 Descending Seattle Center
Sun 06:30:01 PM 47.3019 -121.6964 290° West 151 174 7,700 -555 Descending Seattle Center
Sun 06:31:08 PM 47.3144 -121.7617 286° West 161 185 7,100 -516 Descending Seattle Center
Sun 06:32:09 PM 47.3275 -121.8294 286° West 159 183 6,600 -446 Descending Seattle Center
Sun 06:33:09 PM 47.3364 -121.8900 282° West 153 176 6,200 -495 Descending Seattle Center
Sun 06:33:58 PM 47.3522 -121.9336 298° West 158 182 5,700 -563 Descending Seattle Center
Sun 06:34:13 PM 47.3586 -121.9511 298° West 156 180 5,600 -448 Descending Seattle Center
Sun 06:35:05 PM 47.3797 -121.9969 304° West 164 189 5,200 -316 Descending Seattle Center
Sun 06:36:07 PM 47.4042 -122.0489 305° West 156 180 5,000 -98 Descending Seattle Center
Sun 06:37:07 PM 47.4278 -122.0981 305° West 141 162 5,000  Level Seattle Center
Sun 06:38:02 PM 47.4433 -122.1419 298° West 136 157 5,000  Level Seattle Center
Sun 06:38:17 PM 47.4469 -122.1553 292° West 136 157 5,000 -182 Level Seattle Center
Sun 06:39:08 PM 47.4550 -122.2044 284° West 135 155 4,800 -283 Descending Seattle Center
Sun 06:40:03 PM 47.4636 -122.2556 284° West 148 170 4,500 -514 Descending Seattle Center
Sun 06:40:18 PM 47.4642 -122.2750 272° West 150 173 4,200 -393 Descending Seattle Center
Sun 06:41:04 PM 47.4697 -122.3242 280° West 165 190 4,100 -197 Descending Seattle Center
Sun 06:41:19 PM 47.4714 -122.3381 280° West 158 182 4,000 -436 Descending Seattle Center
Sun 06:41:59 PM 47.4908 -122.3717 311° West 163 188 3,700 -492 Descending Seattle Center
Sun 06:42:20 PM 47.5031 -122.3881 318° Northwest 161 185 3,500 -627 Descending Seattle Center
Sun 06:43:06 PM 47.5286 -122.4164 323° Northwest 167 192 3,000 -590 Descending Seattle Center
Sun 06:43:21 PM 47.5417 -122.4258 334° Northwest 167 192 2,900 -492 Descending Seattle Center
Sun 06:44:07 PM 47.5703 -122.4492 331° Northwest 162 186 2,500 -492 Descending Seattle Center
Sun 06:44:22 PM 47.5803 -122.4578 330° Northwest 161 185 2,400 -300 Descending Seattle Center
Sun 06:45:07 PM 47.6100 -122.4833 330° Northwest 155 178 2,200 -197 Descending Seattle Center
Sun 06:45:23 PM 47.6181 -122.4883 337° Northwest 154 177 2,200  Level Seattle Center
Sun 06:46:08 PM 47.6481 -122.5017 343° North 145 167 2,200  Level Seattle Center
Sun 06:46:24 PM 47.6569 -122.5031 354° North 145 167 2,200  Level Seattle Center
Sun 06:47:03 PM 47.6769 -122.4758 42° Northeast 144 166 2,200  Level Seattle Center
Sun 06:47:24 PM 47.6750 -122.4572 99° East 142 163 2,200 109 Level Seattle Center
Sun 06:47:58 PM 47.6681 -122.4317 112° Southeast 126 145 2,300  Climbing Seattle Center
Sun 06:48:25 PM 47.6603 -122.4097 118° Southeast 128 147 2,200  Descending Seattle Center
Sun 06:49:04 PM 47.6408 -122.3939 151° Southeast 119 137 2,300  Climbing Seattle Center
Sun 06:49:26 PM 47.6286 -122.3858 156° South 116 133 2,200 -590 Descending Seattle Center
Sun 06:50:05 PM 47.6133 -122.3731 151° Southeast 111 128 1,700 -689 Descending Seattle Center
Sun 06:50:27 PM 47.6008 -122.3628 151° Southeast 114 131 1,500 -590 Descending Seattle Center
Sun 06:51:06 PM 47.5850 -122.3492 150° Southeast 111 128 1,100 -590 Descending Seattle Center
Sun 06:51:28 PM 47.5747 -122.3406 151° Southeast 110 127 900 -575 Descending Seattle Center
Sun 06:52:19 PM 47.5567 -122.3253 150° Southeast 110 127 400 -344 Descending Seattle Center
Sun 06:53:30 PM 47.5258 -122.2994 150° Southeast 110 127 200 -169 Descending Seattle Center

Login

Don't have an account? Register now (free) for customized features, flight alerts, and more!